EA1DZR-D
43.12.88N 005.24.00W
IN73HF aprs.fi
zuletzt gehoert:
2022-10-17T15:57:03Z
zuerst gehoert:
2022-08-27T07:37:25Z

APRS Caso [IN73HF], 2 Stunde(n), EA1DZR-D [10:41:23, 0s].
ED1ZAD 43.07.90N 005.38.52WIN73ED 21.419km 247°WSW09:35:08ZED1ZAD-3 APRS Digi/Igate(3ED1ZAD-3)
EA1FLQ 43.22.00N 005.36.35WIN73EI 24.207km 317°NW09:31:38ZMMDVM DVMega 430.9750/430.9750 CC1
ED1ZBF 43.19.16N 005.06.74WIN73KH 26.329km 62°ENE09:31:00ZRD625 438.4750/430.8750 CC1
EB1DGC 43.12.60N 005.45.59WIN73CF 29.172km 270°W09:31:27ZMMDVM MMDVM HS Hat 433.4500/433.4500 CC1
EA1FHR 43.28.72N 005.26.41WIN73GL 30.180km 354°N09:31:24ZMMDVM MMDVM HS Hat 439.1500/439.1500 CC1
EA1HWD 43.28.96N 005.26.30WIN73GL 30.605km 354°N09:31:42ZMMDVM MMDVM HS Hat 434.2500/434.2500 CC1
EA1IMW 43.14.36N 005.46.93WIN73CF 31.146km 276°W09:32:55ZGRUPO RADIO GALENA (GRG) 430.4500/430.4500 CC1(3EA1IMW-1)
EA1HWA 43.12.00N 005.47.40WIN73CE 31.620km 268°W09:31:53ZMMDVM MMDVM HS Hat 433.4500/433.4500 CC1
EA1JBL 43.12.28N 005.47.42WIN73CE 31.648km 269°W09:31:39ZMMDVM DVMega 435.3000/435.3000 CC1
EA1RCG 43.09.45N 005.49.78WIN73CD 35.306km 261°W09:32:47ZGRUPO RADIO GALENA (GRG) 430.4500/430.4500 CC1(3EA1RCG-3)
ED1ZAS 43.27.52N 005.40.17WIN73DL 35.331km 322°NW09:30:55ZRD985 438.2250/430.6250 CC1
EA1JW 43.31.35N 005.28.83WIN73GM 35.478km 349°N09:32:45ZMMDVM MMDVM HS Hat 436.5000/436.5000 CC1(3EA1JW-3)
EA1JBE 43.30.90N 005.16.15WIN73IM 35.647km 17°NNE09:30:03ZMMDVM MMDVM HS Hat 436.5000/436.5000 CC1(3EA1JBE-13)
MAIN QTH http://qrz.com/db/ea1jbe(2EA1JBE-1)
EB1GEM 43.30.00N 005.36.07WIN73EM 36.246km 333°NNW09:27:46ZWX3in1Plus2.0 U=13.3V,T=??.?C/??.?F(3EB1GEM-3)
ED1ZAE 43.27.99N 005.40.54WIN73DL 36.309km 322°NW09:25:19ZWIDE3-3 ESAS3-3 IN73DL WWW.EA1URG.ORG(3ED1ZAE-3)
EA4ACU 43.29.56N 005.38.92WIN73EL 37.441km 328°NNW09:33:45ZMMDVM MMDVM HS Hat 432.7000/432.7000 CC1(3EA4ACU-1)
EA1HWX 43.19.29N 005.50.96WIN73BH 38.487km 289°WNW09:33:16ZDMO - UHF 439.7250/431.0000 CC11(3EA1HWX-2)
LEHU 43.22.63N 005.49.57WIN73CJ 39.250km 299°WNW09:30:02ZHelipuerto del HUCA: LEAS 090907Z 08006KT 020V110 3000 -RA BKN003 BKN005 BKN012 10/10 Q1001 NOSIG=
EA1L 43.20.38N 005.51.13WIN73BI 39.406km 292°WNW09:30:05ZWind 037°/005kn, Böen bis 008kn, Temp 15.56c, Regen 0.0mm, letzte 24h 1.5mm, seit 0h 1.5mm, Baro 0998.5h, Hum: 0%(3EA1L-13)
ea1l@ure.es V=13.2V(2EA1L)
EA1IPU 43.26.21N 005.46.62WIN73CK 39.667km 310°NW09:32:54ZMMDVM MMDVM HS Hat 439.8000/439.8000 CC1(3EA1IPU-1)
33D00 43.21.63N 005.51.13WIN73BI 40.294km 295°WNW09:01:42Z33-D-00 Protección Civil REMER / Delegación del Gobierno en Asturias
EA1JBU 43.21.85N 005.51.13WIN73BI 40.478km 295°WNW09:32:03ZPrivate Call 2141837(3EA1JBU-7)
EA1JBU(2EA1JBU-1)
EA1JAY 43.21.54N 005.51.34WIN73BI 40.495km 295°WNW09:30:05ZEA1JAY(3EA1JAY-2)
434.525MHz Nodo TETRA DMO(2EA1JAY-4)
EA1DZR 43.31.48N 005.40.00WIN73DM 41.211km 329°NNW09:32:52ZMMDVM DVMega 431.1000/431.1000 CC1(3EA1DZR-1)
MMDVM MMDVM HS Hat 432.2000/432.2000 CC2(2EA1DZR-2)
MMDVM DV ADER 434.3500/434.3500 CC1(2EA1DZR-4)
EA1HJA 43.21.47N 005.52.09WIN73BI 41.375km 294°WNW09:33:27Z IN73FL WX3IN1+ 2.0 - V=13.4V,TX TEMP=23.3C(3EA1HJA-2)
EA1HJA@URE.ES(2EA1HJA)
EA1FFA 43.31.53N 005.40.64WIN73DM 41.755km 328°NNW09:33:12ZMMDVM MMDVM HS Hat 438.8000/438.8000 CC1(3EA1FFA-1)
EA1IEJ 43.32.33N 005.38.92WIN73EM 41.835km 331°NNW09:33:00ZMMDVM DMO 222.3400/222.3400 CC1(3EA1IEJ-11)
LEMR 43.25.83N 005.49.60WIN73CK 42.420km 306°NW09:30:02ZAerodromo de la Morgal (123.500MHz): LEAS 090907Z 08006KT 020V110 3000 -RA BKN003 BKN005 BKN012 10/10 Q1001 NOSIG=
ED1ZAW 42.51.18N 005.11.65WIN72JU 42.948km 157°SSE09:30:56ZAerodromo de la Morgal (123.500MHz): LEAS 090907Z 08006KT 020V110 3000 -RA BKN003 BKN005 BKN012 10/10 Q1001 NOSIG=(3ED1ZAW-3)
Unión de Radioaficionados de León URLE. DMR alta cobertura. 438.4000/430.8000 CC1(2ED1ZAW)
LEGM 43.26.15N 005.49.84WIN73CK 43.028km 306°NW09:30:02ZHelipuerto de La Morgal (123.500MHz): LEAS 090907Z 08006KT 020V110 3000 -RA BKN003 BKN005 BKN012 10/10 Q1001 NOSIG=
ED1ZAU 43.23.04N 005.52.75WIN73BJ 43.402km 297°WNW09:30:56ZRD625 438.5000/430.9000 CC1
EB1TK 43.32.22N 005.42.32WIN73DM 44.064km 326°NW09:35:17ZWind 039°/022kn, Böen bis 028kn, Temp 11.67c, Regen 0.5mm, letzte 24h 30.2mm, seit 0h 30.2mm, Baro 1003.5h, Hum: 92%(3EB1TK-13)
LEEL 43.32.98N 005.41.71WIN73DN 44.785km 328°NNW09:30:02ZHelipuerto de El Musel: LEAS 090907Z 08006KT 020V110 3000 -RA BKN003 BKN005 BKN012 10/10 Q1001 NOSIG=

aprs.pl 5.0.011w DL3EL © 2006-2021 [8336263]